Time;durP1;ratioP1;P1;durP2;ratioP2;P2;SDS_P1;SDS_P2;PMS_P1;PMS_P2;Temp;Humidity;BMP_temperature;BMP_pressure;BME280_temperature;BME280_humidity;BME280_pressure;Samples;Min_cycle;Max_cycle;Signal;HPM_P1;HPM_P2
2023/07/11 00:01:36;;;;;;;8.57;3.20;;;;;;;18.84;72.44;101822.66;6113379;19;20106;-72
2023/07/11 00:03:41;;;;;;;7.03;3.55;;;;;;;18.85;71.58;101823.53;6114296;19;20402;-71
2023/07/11 00:06:02;;;;;;;7.80;3.50;;;;;;;18.82;72.00;101818.38;6113058;19;20569;-73
2023/07/11 00:08:08;;;;;;;10.55;3.67;;;;;;;18.83;72.64;101817.44;6114310;19;20022;-73
2023/07/11 00:10:16;;;;;;;11.10;3.70;;;;;;;18.82;72.71;101811.25;6116322;19;20006;-73
2023/07/11 00:12:29;;;;;;;9.30;4.43;;;;;;;18.86;73.31;101809.28;6116377;19;20463;-71
2023/07/11 00:14:36;;;;;;;10.27;3.85;;;;;;;18.88;73.17;101811.81;6116727;19;20035;-71
2023/07/11 00:16:44;;;;;;;8.60;3.45;;;;;;;18.86;73.07;101807.47;6114771;19;20450;-71
2023/07/11 00:18:49;;;;;;;10.65;4.15;;;;;;;18.87;74.04;101805.66;6114909;19;20074;-71
2023/07/11 00:20:55;;;;;;;9.70;3.10;;;;;;;18.84;73.49;101804.03;6113885;19;20448;-71
2023/07/11 00:23:02;;;;;;;7.18;3.60;;;;;;;18.84;74.00;101798.69;6115161;19;20091;-71
2023/07/11 00:25:08;;;;;;;10.05;3.75;;;;;;;18.84;74.36;101803.19;6115834;19;20444;-71
2023/07/11 00:27:14;;;;;;;9.43;3.28;;;;;;;18.82;73.41;101795.25;6115167;19;20011;-72
2023/07/11 00:29:22;;;;;;;7.60;3.30;;;;;;;18.83;74.84;101791.66;6114570;19;20015;-72
2023/07/11 00:31:31;;;;;;;7.97;3.53;;;;;;;18.83;73.44;101789.00;6112009;19;20094;-72
2023/07/11 00:33:36;;;;;;;6.05;3.40;;;;;;;18.81;73.82;101792.72;6114694;19;20086;-71
2023/07/11 00:35:42;;;;;;;7.78;3.65;;;;;;;18.77;74.14;101789.38;6115050;19;20345;-72
2023/07/11 00:37:47;;;;;;;6.20;2.75;;;;;;;18.77;74.38;101794.72;6115159;19;20081;-71
2023/07/11 00:39:53;;;;;;;10.48;3.72;;;;;;;18.76;75.15;101782.31;6115195;19;20015;-71
2023/07/11 00:41:58;;;;;;;9.20;3.42;;;;;;;18.77;75.05;101780.53;6115421;19;20025;-70
2023/07/11 00:44:03;;;;;;;12.15;4.10;;;;;;;18.75;75.17;101785.94;6112679;19;20052;-71
2023/07/11 00:46:14;;;;;;;10.10;3.55;;;;;;;18.77;75.16;101784.06;6110800;19;20089;-70
2023/07/11 00:48:22;;;;;;;7.40;3.25;;;;;;;18.75;75.66;101785.09;6115274;19;19998;-72
2023/07/11 00:50:32;;;;;;;9.10;3.95;;;;;;;18.76;75.27;101770.81;6114515;19;20094;-72
2023/07/11 00:52:40;;;;;;;12.15;5.43;;;;;;;18.72;75.90;101772.78;6114234;19;20086;-72
2023/07/11 00:54:47;;;;;;;8.07;3.60;;;;;;;18.73;75.09;101774.50;6116468;19;20010;-71
2023/07/11 00:56:53;;;;;;;7.93;3.22;;;;;;;18.74;74.99;101767.34;6113831;19;20056;-70
2023/07/11 00:59:00;;;;;;;8.27;3.78;;;;;;;18.70;75.40;101761.38;6114559;19;20007;-70
2023/07/11 01:01:05;;;;;;;9.60;3.20;;;;;;;18.67;74.79;101760.69;6114397;19;20030;-70
2023/07/11 01:03:10;;;;;;;10.65;3.80;;;;;;;18.70;74.60;101761.38;6112844;19;20446;-70
2023/07/11 01:05:16;;;;;;;7.18;3.22;;;;;;;18.65;74.38;101752.81;6114502;19;20168;-73
2023/07/11 01:07:28;;;;;;;7.78;3.13;;;;;;;18.65;74.81;101745.66;6115265;19;20057;-73
2023/07/11 01:09:33;;;;;;;7.95;2.80;;;;;;;18.61;75.23;101745.94;6111322;19;20412;-71
2023/07/11 01:11:54;;;;;;;8.40;3.47;;;;;;;18.57;75.21;101744.44;6110723;19;20042;-72
2023/07/11 01:13:59;;;;;;;9.15;3.47;;;;;;;18.53;75.31;101745.53;6112487;19;20006;-74
2023/07/11 01:16:04;;;;;;;6.90;2.97;;;;;;;18.54;74.83;101739.28;6109180;19;20010;-71
2023/07/11 01:18:11;;;;;;;8.85;3.55;;;;;;;18.52;75.09;101739.38;6112897;19;20031;-71
2023/07/11 01:20:13;;;;;;;8.68;3.85;;;;;;;18.52;75.64;101736.69;6111881;19;20002;-71
2023/07/11 01:22:21;;;;;;;8.75;3.42;;;;;;;18.55;75.98;101741.84;6112431;19;20010;-72
2023/07/11 01:24:26;;;;;;;7.63;2.95;;;;;;;18.52;75.79;101733.19;6112263;19;20022;-72
2023/07/11 01:26:32;;;;;;;8.52;4.13;;;;;;;18.52;76.77;101727.88;6113188;19;20019;-70
2023/07/11 01:28:39;;;;;;;6.30;3.03;;;;;;;18.54;76.25;101728.63;6111857;19;20014;-71
2023/07/11 01:30:45;;;;;;;7.80;3.40;;;;;;;18.46;77.33;101723.78;6114078;19;20006;-70
2023/07/11 01:32:50;;;;;;;8.88;3.08;;;;;;;18.43;77.35;101713.28;6111512;19;20035;-72
2023/07/11 01:34:56;;;;;;;8.23;3.25;;;;;;;18.39;77.71;101715.28;6112059;19;20082;-72
2023/07/11 01:37:01;;;;;;;6.28;2.97;;;;;;;18.44;77.18;101712.34;6110933;19;20467;-71
2023/07/11 01:39:09;;;;;;;5.65;3.05;;;;;;;18.40;77.49;101701.06;6112098;19;20010;-70
2023/07/11 01:41:15;;;;;;;6.93;3.40;;;;;;;18.39;77.88;101699.31;6111500;19;20006;-70
2023/07/11 01:43:22;;;;;;;5.18;3.05;;;;;;;18.40;77.58;101697.50;6111483;19;20047;-71
2023/07/11 01:45:30;;;;;;;7.68;3.50;;;;;;;18.37;77.39;101689.72;6110216;19;20038;-71
2023/07/11 01:47:35;;;;;;;10.07;3.53;;;;;;;18.34;76.78;101689.91;6111511;19;20022;-71
2023/07/11 01:49:40;;;;;;;5.13;3.00;;;;;;;18.33;76.66;101689.03;6107401;19;20014;-71
2023/07/11 01:51:47;;;;;;;8.63;3.75;;;;;;;18.31;76.75;101685.63;6111751;19;20014;-71
2023/07/11 01:53:52;;;;;;;5.05;2.67;;;;;;;18.31;76.82;101672.31;6111472;19;20447;-71
2023/07/11 01:56:03;;;;;;;5.10;2.72;;;;;;;18.31;76.71;101674.13;6111546;19;20014;-71
2023/07/11 01:58:09;;;;;;;7.32;3.22;;;;;;;18.28;76.77;101675.16;6106849;19;20015;-73
2023/07/11 02:00:16;;;;;;;5.72;2.65;;;;;;;18.27;76.67;101664.59;6112427;19;19999;-73
2023/07/11 02:02:21;;;;;;;8.25;2.95;;;;;;;18.23;76.62;101661.28;6112498;19;20392;-72
2023/07/11 02:04:26;;;;;;;6.03;2.92;;;;;;;18.23;76.46;101655.94;6112278;19;20015;-73
2023/07/11 02:06:31;;;;;;;5.35;2.78;;;;;;;18.17;76.48;101657.19;6112182;19;20022;-73
2023/07/11 02:08:36;;;;;;;5.70;2.75;;;;;;;18.17;76.29;101653.66;6112159;19;20094;-73
2023/07/11 02:10:41;;;;;;;6.07;2.78;;;;;;;18.15;76.36;101648.41;6113254;19;20389;-73
2023/07/11 02:12:49;;;;;;;4.68;2.45;;;;;;;18.14;76.20;101649.38;6111439;19;20125;-73
2023/07/11 02:14:54;;;;;;;6.25;3.00;;;;;;;18.13;75.83;101650.31;6111608;19;20014;-72
2023/07/11 02:17:00;;;;;;;7.18;3.45;;;;;;;18.13;75.80;101645.00;6112295;19;20086;-74
2023/07/11 02:19:05;;;;;;;5.72;2.80;;;;;;;18.12;75.35;101643.28;6110820;19;20007;-74
2023/07/11 02:21:10;;;;;;;8.23;3.00;;;;;;;18.11;75.52;101641.56;6110693;19;20031;-72
2023/07/11 02:23:17;;;;;;;6.63;2.65;;;;;;;18.13;75.51;101639.66;6110312;19;20515;-71
2023/07/11 02:25:22;;;;;;;6.43;3.10;;;;;;;18.09;75.40;101639.94;6110356;19;20014;-73
2023/07/11 02:27:32;;;;;;;6.93;3.00;;;;;;;18.05;75.31;101633.94;6103191;19;20015;-74
2023/07/11 02:29:40;;;;;;;5.50;2.40;;;;;;;18.05;75.27;101635.75;6110390;19;20450;-73
2023/07/11 02:31:48;;;;;;;5.93;3.03;;;;;;;18.01;75.65;101631.56;6111874;19;20019;-74
2023/07/11 02:33:54;;;;;;;7.25;2.83;;;;;;;17.98;75.50;101627.28;6110599;19;20466;-73
2023/07/11 02:35:59;;;;;;;8.43;2.65;;;;;;;17.95;75.48;101619.47;6110786;19;20023;-70
2023/07/11 02:38:04;;;;;;;7.10;2.95;;;;;;;17.96;75.21;101618.56;6113016;19;20028;-70
2023/07/11 02:40:10;;;;;;;6.57;2.85;;;;;;;17.94;75.49;101615.97;6112343;19;20052;-70
2023/07/11 02:42:14;;;;;;;5.03;2.60;;;;;;;17.92;75.00;101617.88;6110789;19;20330;-70
2023/07/11 02:44:20;;;;;;;4.15;2.92;;;;;;;17.91;74.86;101612.66;6112435;19;20078;-70
2023/07/11 02:46:28;;;;;;;4.07;2.72;;;;;;;17.89;74.40;101604.75;6110825;19;20023;-70
2023/07/11 02:48:33;;;;;;;5.95;2.92;;;;;;;17.95;74.01;101603.53;6109650;19;20006;-70
2023/07/11 02:50:42;;;;;;;4.57;2.63;;;;;;;17.98;73.60;101608.66;6109671;19;20528;-72
2023/07/11 02:52:47;;;;;;;6.35;2.55;;;;;;;17.97;73.10;101601.63;6110741;19;20432;-71
2023/07/11 02:54:52;;;;;;;7.65;2.83;;;;;;;18.01;72.68;101597.88;6116343;19;20011;-70
2023/07/11 02:56:59;;;;;;;7.75;2.70;;;;;;;17.96;72.40;101600.78;6115279;19;20014;-72
2023/07/11 02:59:04;;;;;;;6.10;2.72;;;;;;;17.91;72.54;101594.03;6115534;19;20010;-72
2023/07/11 03:01:10;;;;;;;9.20;2.63;;;;;;;17.90;72.46;101590.50;6117852;19;20022;-70
2023/07/11 03:03:17;;;;;;;6.47;3.30;;;;;;;17.89;72.37;101588.81;6117464;19;20034;-70
2023/07/11 03:05:23;;;;;;;5.53;2.58;;;;;;;17.92;72.16;101585.94;6116177;19;20022;-72
2023/07/11 03:07:28;;;;;;;5.35;2.60;;;;;;;17.91;71.89;101583.41;6111887;19;20492;-71
2023/07/11 03:09:37;;;;;;;4.55;2.30;;;;;;;17.94;71.80;101591.19;6117519;19;20078;-72
2023/07/11 03:11:42;;;;;;;5.15;2.92;;;;;;;17.90;71.70;101585.19;6116762;19;20018;-73
2023/07/11 03:13:47;;;;;;;3.63;2.13;;;;;;;17.86;72.07;101581.00;6113401;19;20486;-72
2023/07/11 03:15:52;;;;;;;4.78;2.50;;;;;;;17.85;72.29;101586.41;6115157;19;20015;-75
2023/07/11 03:17:58;;;;;;;5.13;2.30;;;;;;;17.85;72.09;101576.66;6115885;19;20027;-72
2023/07/11 03:20:07;;;;;;;6.78;2.13;;;;;;;17.84;72.26;101580.25;6114705;19;20085;-74
2023/07/11 03:22:12;;;;;;;5.35;2.30;;;;;;;17.83;72.15;101573.22;6115741;19;20022;-73
2023/07/11 03:24:18;;;;;;;7.65;3.03;;;;;;;17.81;71.97;101575.09;6115225;19;20047;-73
2023/07/11 03:26:23;;;;;;;4.72;2.00;;;;;;;17.86;71.41;101573.03;6116500;19;20018;-72
2023/07/11 03:28:32;;;;;;;6.97;3.00;;;;;;;17.84;71.56;101574.91;6115605;19;20404;-74
2023/07/11 03:30:38;;;;;;;5.05;2.10;;;;;;;17.87;71.73;101566.75;6116443;19;20018;-72
2023/07/11 03:32:43;;;;;;;4.22;1.80;;;;;;;17.84;72.14;101571.41;6115593;19;20014;-72
2023/07/11 03:34:46;;;;;;;5.78;2.10;;;;;;;17.85;71.72;101563.34;6115449;19;20031;-72
2023/07/11 03:37:04;;;;;;;6.30;2.40;;;;;;;17.82;71.91;101565.31;6117041;19;20086;-72
2023/07/11 03:39:07;;;;;;;4.47;2.17;;;;;;;17.80;71.93;101559.22;6112814;19;20015;-71
2023/07/11 03:41:12;;;;;;;5.47;2.05;;;;;;;17.78;72.59;101551.34;6116604;19;20460;-71
2023/07/11 03:43:17;;;;;;;5.97;2.50;;;;;;;17.76;72.42;101545.25;6117242;19;20011;-72
2023/07/11 03:45:23;;;;;;;4.80;2.33;;;;;;;17.75;72.47;101548.88;6115207;19;20014;-70
2023/07/11 03:47:28;;;;;;;7.88;2.58;;;;;;;17.73;72.39;101540.97;6111833;19;20018;-72
2023/07/11 03:49:30;;;;;;;3.30;2.03;;;;;;;17.73;72.47;101543.63;6115467;19;20359;-72
2023/07/11 03:51:36;;;;;;;5.00;2.40;;;;;;;17.76;72.41;101534.63;6112226;19;20058;-72
2023/07/11 03:53:43;;;;;;;4.65;2.15;;;;;;;17.76;72.30;101534.63;6110674;19;20078;-71
2023/07/11 03:55:48;;;;;;;3.80;1.98;;;;;;;17.72;72.43;101528.63;6115363;19;20439;-70
2023/07/11 03:57:53;;;;;;;6.65;2.45;;;;;;;17.75;72.20;101532.91;6117094;19;20471;-71
2023/07/11 03:59:59;;;;;;;5.47;2.35;;;;;;;17.73;72.57;101526.81;6115836;19;20094;-70
2023/07/11 04:02:04;;;;;;;5.53;2.35;;;;;;;17.74;72.49;101528.53;6117012;19;20377;-72
2023/07/11 04:04:09;;;;;;;4.65;2.30;;;;;;;17.73;72.46;101529.47;6116019;19;20023;-71
2023/07/11 04:06:15;;;;;;;5.30;2.50;;;;;;;17.69;72.60;101527.94;6114618;19;20058;-72
2023/07/11 04:08:20;;;;;;;5.30;2.10;;;;;;;17.70;72.48;101527.00;6117653;19;20023;-71
2023/07/11 04:10:28;;;;;;;5.18;2.28;;;;;;;17.71;72.41;101526.91;6114416;19;20015;-72
2023/07/11 04:12:33;;;;;;;6.40;2.60;;;;;;;17.73;72.87;101524.16;6115467;19;20669;-72
2023/07/11 04:14:39;;;;;;;5.25;2.58;;;;;;;17.74;72.34;101515.22;6114091;19;20111;-71
2023/07/11 04:16:47;;;;;;;5.75;2.25;;;;;;;17.73;72.44;101514.38;6115171;19;20046;-71
2023/07/11 04:18:53;;;;;;;5.68;2.45;;;;;;;17.77;72.22;101509.72;6113843;19;20011;-72
2023/07/11 04:20:58;;;;;;;6.45;2.20;;;;;;;17.75;72.49;101511.66;6114730;19;20050;-70
2023/07/11 04:23:00;;;;;;;5.53;2.60;;;;;;;17.75;72.63;101507.19;6114263;19;20015;-70
2023/07/11 04:25:06;;;;;;;4.25;2.33;;;;;;;17.80;72.74;101500.75;6115139;19;20006;-70
2023/07/11 04:27:14;;;;;;;4.00;2.05;;;;;;;17.81;72.41;101505.13;6114522;19;20075;-72
2023/07/11 04:29:20;;;;;;;3.53;2.20;;;;;;;17.83;72.57;101509.41;6113406;19;20051;-70
2023/07/11 04:31:25;;;;;;;5.53;2.45;;;;;;;17.86;72.09;101501.25;6110999;19;20379;-71
2023/07/11 04:33:33;;;;;;;6.20;2.67;;;;;;;17.92;71.82;101506.19;6115006;19;20467;-72
2023/07/11 04:35:39;;;;;;;4.28;2.20;;;;;;;17.98;71.69;101500.50;6113117;19;20018;-72
2023/07/11 04:37:43;;;;;;;4.07;2.20;;;;;;;18.01;71.43;101501.25;6116192;19;20051;-73
2023/07/11 04:39:49;;;;;;;5.18;2.03;;;;;;;18.07;71.44;101495.56;6112812;19;20045;-73
2023/07/11 04:41:55;;;;;;;4.80;2.35;;;;;;;18.12;71.00;101496.16;6115492;19;20009;-73
2023/07/11 04:44:02;;;;;;;2.97;2.05;;;;;;;18.18;70.84;101488.63;6114700;19;20047;-70
2023/07/11 04:46:08;;;;;;;2.92;2.00;;;;;;;18.30;70.45;101486.13;6114421;19;20019;-70
2023/07/11 04:48:13;;;;;;;5.78;2.00;;;;;;;18.38;70.25;101482.06;6114180;19;20523;-71
2023/07/11 04:50:19;;;;;;;6.00;2.38;;;;;;;18.39;70.13;101486.44;6113499;19;20006;-70
2023/07/11 04:52:24;;;;;;;3.47;2.30;;;;;;;18.40;70.09;101485.50;6114742;19;20013;-70
2023/07/11 04:54:30;;;;;;;5.97;2.38;;;;;;;18.48;70.35;101479.66;6112532;19;20590;-70
2023/07/11 04:56:34;;;;;;;4.78;2.33;;;;;;;18.58;70.21;101474.59;6113824;19;20010;-74
2023/07/11 04:58:40;;;;;;;6.22;2.30;;;;;;;18.63;69.84;101469.84;6112324;19;19999;-73
2023/07/11 05:00:48;;;;;;;6.30;2.40;;;;;;;18.64;70.00;101468.88;6112653;19;20011;-72
2023/07/11 05:02:53;;;;;;;6.55;2.60;;;;;;;18.70;70.10;101472.97;6111222;19;20018;-73
2023/07/11 05:04:58;;;;;;;3.58;2.00;;;;;;;18.75;69.80;101470.91;6111685;19;20474;-73
2023/07/11 05:07:04;;;;;;;5.38;2.85;;;;;;;18.85;70.37;101462.22;6110738;19;20035;-74
2023/07/11 05:09:09;;;;;;;4.55;2.50;;;;;;;19.24;68.82;101457.84;6113886;19;20007;-74
2023/07/11 05:11:17;;;;;;;4.70;2.35;;;;;;;19.45;67.59;101458.22;6113534;19;20017;-73
2023/07/11 05:13:22;;;;;;;6.22;2.80;;;;;;;19.58;67.40;101460.03;6112849;19;20493;-73
2023/07/11 05:15:30;;;;;;;4.65;2.63;;;;;;;19.86;66.68;101457.22;6102807;19;20010;-72
2023/07/11 05:17:40;;;;;;;7.22;2.28;;;;;;;20.12;66.10;101459.88;6109993;19;20017;-73
2023/07/11 05:19:48;;;;;;;5.00;2.20;;;;;;;20.32;65.55;101442.41;6110036;19;20082;-73
2023/07/11 05:21:53;;;;;;;8.40;3.10;;;;;;;20.64;64.48;101441.94;6112173;19;20014;-74
2023/07/11 05:23:58;;;;;;;7.28;2.80;;;;;;;20.86;63.79;101436.72;6109259;19;20023;-70
2023/07/11 05:26:04;;;;;;;7.85;2.85;;;;;;;20.71;63.86;101436.03;6112929;19;20421;-74
2023/07/11 05:28:09;;;;;;;7.90;3.10;;;;;;;20.93;63.59;101429.94;6112408;19;20123;-74
2023/07/11 05:30:15;;;;;;;5.47;2.78;;;;;;;21.14;63.54;101427.47;6112383;19;20002;-73
2023/07/11 05:32:21;;;;;;;5.68;2.38;;;;;;;21.27;63.09;101430.06;6110427;19;20014;-72
2023/07/11 05:34:28;;;;;;;6.82;2.65;;;;;;;21.68;61.87;101418.88;6111739;19;20009;-72
2023/07/11 05:36:34;;;;;;;5.75;2.85;;;;;;;21.86;61.00;101416.56;6112774;19;20014;-73
2023/07/11 05:38:39;;;;;;;6.88;3.38;;;;;;;21.86;60.84;101410.38;6113489;19;20031;-72
2023/07/11 05:40:44;;;;;;;5.00;2.63;;;;;;;21.99;60.68;101415.63;6095340;19;20397;-73
2023/07/11 05:42:50;;;;;;;6.65;3.10;;;;;;;22.27;59.80;101412.44;6113803;19;20022;-72
2023/07/11 05:44:56;;;;;;;5.85;2.67;;;;;;;22.30;59.28;101409.53;6110903;19;20007;-73
2023/07/11 05:47:05;;;;;;;7.63;3.00;;;;;;;22.39;59.40;101409.75;6112481;19;20002;-72
2023/07/11 05:49:10;;;;;;;9.60;3.10;;;;;;;22.21;59.30;101407.59;6110746;19;20015;-75
2023/07/11 05:51:19;;;;;;;5.90;3.28;;;;;;;22.37;59.99;101403.66;6113614;19;20073;-73
2023/07/11 05:53:25;;;;;;;8.68;3.38;;;;;;;22.95;57.73;101406.88;6105999;19;20089;-70
2023/07/11 05:55:32;;;;;;;6.80;2.60;;;;;;;22.83;57.39;101405.22;6111948;19;20024;-73
2023/07/11 05:57:40;;;;;;;5.97;2.90;;;;;;;23.16;56.66;101405.09;6110213;19;20019;-73
2023/07/11 05:59:46;;;;;;;6.38;2.80;;;;;;;23.20;56.62;101398.50;6111934;19;20019;-74
2023/07/11 06:01:52;;;;;;;8.45;3.10;;;;;;;23.32;56.11;101401.13;6113846;19;20006;-73
2023/07/11 06:04:07;;;;;;;7.30;2.97;;;;;;;23.14;55.70;101398.16;6112626;19;20090;-73
2023/07/11 06:06:12;;;;;;;5.10;2.60;;;;;;;23.43;56.37;101395.66;6114486;19;20010;-74
2023/07/11 06:08:20;;;;;;;6.35;2.60;;;;;;;23.70;55.48;101396.94;6111500;19;20002;-73
2023/07/11 06:10:26;;;;;;;7.13;3.10;;;;;;;23.32;55.66;101398.44;6113707;19;20014;-71
2023/07/11 06:12:33;;;;;;;5.20;2.83;;;;;;;23.28;55.03;101392.50;6111881;19;20006;-74
2023/07/11 06:14:41;;;;;;;6.55;3.17;;;;;;;23.80;54.74;101395.19;6113593;19;20017;-71
2023/07/11 06:16:47;;;;;;;6.85;3.90;;;;;;;23.88;54.29;101395.34;6111184;19;20014;-72
2023/07/11 06:18:53;;;;;;;7.10;3.45;;;;;;;24.18;54.14;101393.66;6112342;19;20018;-72
2023/07/11 06:20:58;;;;;;;6.93;3.17;;;;;;;24.55;52.45;101384.97;6111933;19;20010;-72
2023/07/11 06:23:03;;;;;;;7.90;3.20;;;;;;;24.86;51.50;101380.34;6112865;19;20011;-72
2023/07/11 06:25:11;;;;;;;4.88;2.85;;;;;;;25.01;50.78;101376.19;6109149;19;20416;-73
2023/07/11 06:27:17;;;;;;;4.95;2.67;;;;;;;25.55;49.93;101380.09;6113856;19;20047;-72
2023/07/11 06:29:22;;;;;;;4.63;2.50;;;;;;;25.47;49.98;101379.13;6111518;19;20513;-73
2023/07/11 06:31:28;;;;;;;5.90;3.00;;;;;;;25.75;48.48;101378.19;6108683;19;20015;-73
2023/07/11 06:33:33;;;;;;;4.10;2.45;;;;;;;25.90;47.82;101377.72;6115562;19;20014;-73
2023/07/11 06:35:36;;;;;;;8.20;3.08;;;;;;;25.53;47.21;101378.53;6110699;19;20022;-71
2023/07/11 06:37:41;;;;;;;;;;;;;;;25.34;48.32;101369.53;6112898;19;20018;-72
2023/07/11 06:39:48;;;;;;;6.20;2.47;;;;;;;25.99;48.02;101369.59;6110176;19;19935;-73
2023/07/11 06:41:55;;;;;;;6.72;2.60;;;;;;;25.95;47.05;101367.34;6112212;19;20007;-74
2023/07/11 06:44:04;;;;;;;7.43;3.08;;;;;;;25.99;46.21;101364.22;6110526;19;20014;-73
2023/07/11 06:46:09;;;;;;;6.40;2.45;;;;;;;26.03;46.48;101359.34;6111238;19;20021;-72
2023/07/11 06:48:14;;;;;;;7.55;2.65;;;;;;;26.07;46.04;101360.75;6109548;19;20472;-72
2023/07/11 06:50:21;;;;;;;6.78;2.83;;;;;;;26.02;46.37;101363.91;6109154;19;20014;-71
2023/07/11 06:52:29;;;;;;;5.93;2.47;;;;;;;26.24;46.07;101367.16;6109489;19;20455;-72
2023/07/11 06:54:34;;;;;;;5.72;2.90;;;;;;;26.30;45.62;101365.72;6107343;19;20148;-73
2023/07/11 06:56:39;;;;;;;5.13;2.85;;;;;;;26.40;45.45;101363.81;6109094;19;20014;-72
2023/07/11 06:58:47;;;;;;;7.95;3.47;;;;;;;26.33;45.55;101371.66;6109194;19;20050;-73
2023/07/11 07:01:01;;;;;;;6.72;2.78;;;;;;;26.60;45.50;101378.88;6108891;19;20015;-73
2023/07/11 07:03:07;;;;;;;7.35;2.80;;;;;;;26.68;45.25;101370.00;6109215;19;20010;-72
2023/07/11 07:05:13;;;;;;;6.03;3.03;;;;;;;26.60;45.49;101368.09;6110734;19;20018;-70
2023/07/11 07:07:19;;;;;;;7.60;3.15;;;;;;;26.82;44.86;101366.75;6110006;19;20426;-70
2023/07/11 07:09:24;;;;;;;9.45;3.08;;;;;;;27.53;44.71;101363.06;6110714;19;20373;-73
2023/07/11 07:11:31;;;;;;;8.52;3.13;;;;;;;26.64;45.22;101365.91;6110916;19;20044;-72
2023/07/11 07:13:37;;;;;;;7.90;3.25;;;;;;;26.35;46.19;101368.78;6109125;19;20075;-72
2023/07/11 07:15:59;;;;;;;7.95;2.95;;;;;;;27.00;45.83;101360.50;6109235;19;20006;-73
2023/07/11 07:18:04;;;;;;;7.97;3.30;;;;;;;26.89;45.36;101367.00;6110317;19;20027;-74
2023/07/11 07:20:12;;;;;;;6.68;2.63;;;;;;;27.18;45.20;101358.66;6110312;19;20071;-73
2023/07/11 07:22:17;;;;;;;5.68;2.40;;;;;;;27.41;44.64;101358.97;6105381;19;20020;-72
2023/07/11 07:24:22;;;;;;;5.90;2.55;;;;;;;27.33;45.65;101358.88;6110659;19;20011;-74
2023/07/11 07:26:33;;;;;;;6.82;3.13;;;;;;;27.57;44.40;101358.22;6110777;19;20022;-72
2023/07/11 07:28:39;;;;;;;5.72;2.53;;;;;;;27.74;43.36;101362.66;6108798;19;20062;-73
2023/07/11 07:30:47;;;;;;;4.45;2.38;;;;;;;27.32;44.47;101358.06;6110104;19;20027;-73
2023/07/11 07:32:55;;;;;;;5.00;2.63;;;;;;;27.90;43.39;101363.78;6110840;19;20015;-72
2023/07/11 07:35:03;;;;;;;10.52;2.88;;;;;;;26.81;44.27;101356.97;6106883;19;20027;-72
2023/07/11 07:37:08;;;;;;;10.50;2.60;;;;;;;26.31;47.11;101359.34;6109389;19;20364;-73
2023/07/11 07:39:14;;;;;;;9.10;2.75;;;;;;;26.35;46.75;101358.84;6110563;19;20002;-72
2023/07/11 07:41:21;;;;;;;7.03;2.58;;;;;;;26.49;46.41;101366.44;6112702;19;20040;-73
2023/07/11 07:43:23;;;;;;;5.75;2.75;;;;;;;25.86;47.83;101357.44;6114467;19;20425;-72
2023/07/11 07:45:28;;;;;;;5.20;2.83;;;;;;;25.80;48.10;101359.75;6114540;19;20019;-72
2023/07/11 07:47:35;;;;;;;5.05;2.30;;;;;;;26.83;46.54;101354.97;6114178;19;20039;-73
2023/07/11 07:49:42;;;;;;;8.13;3.03;;;;;;;27.09;46.18;101352.31;6115574;19;20082;-71
2023/07/11 07:51:58;;;;;;;6.85;2.65;;;;;;;27.52;45.16;101356.00;6115471;19;20010;-71
2023/07/11 07:54:03;;;;;;;7.47;2.55;;;;;;;27.57;44.47;101348.25;6114176;19;20007;-71
2023/07/11 07:56:11;;;;;;;9.80;2.70;;;;;;;27.72;43.56;101348.47;6114799;19;20459;-71
2023/07/11 07:58:17;;;;;;;9.00;2.80;;;;;;;28.25;43.07;101357.28;6112172;19;20014;-70
2023/07/11 08:00:40;;;;;;;8.40;3.08;;;;;;;27.70;44.33;101350.50;6114914;19;20031;-70
2023/07/11 08:02:47;;;;;;;6.75;2.80;;;;;;;27.56;43.62;101349.25;6112190;19;20178;-70
2023/07/11 08:04:55;;;;;;;6.55;2.40;;;;;;;28.37;42.62;101342.47;6115427;19;20364;-71
2023/07/11 08:07:03;;;;;;;5.38;2.30;;;;;;;27.81;43.13;101346.72;6115390;19;20026;-70
2023/07/11 08:09:08;;;;;;;7.22;2.55;;;;;;;28.08;43.86;101352.88;6112944;19;20035;-70
2023/07/11 08:11:13;;;;;;;4.93;2.30;;;;;;;28.13;42.94;101353.22;6114869;19;20043;-71
2023/07/11 08:13:19;;;;;;;5.22;2.50;;;;;;;27.90;43.69;101342.16;6114755;19;20029;-71
2023/07/11 08:15:24;;;;;;;5.18;2.70;;;;;;;27.84;43.12;101342.84;6113180;19;20477;-72
2023/07/11 08:17:29;;;;;;;8.70;2.63;;;;;;;28.18;43.14;101348.19;6114628;19;20534;-71
2023/07/11 08:19:34;;;;;;;6.80;2.53;;;;;;;28.30;42.60;101341.44;6112944;19;20480;-70
2023/07/11 08:21:42;;;;;;;6.63;2.72;;;;;;;28.35;42.31;101336.38;6112716;19;20039;-71
2023/07/11 08:23:47;;;;;;;7.22;2.70;;;;;;;28.32;43.13;101334.00;6113594;19;20475;-71
2023/07/11 08:25:54;;;;;;;6.63;2.70;;;;;;;28.32;42.83;101334.00;6113651;19;20011;-70
2023/07/11 08:27:59;;;;;;;9.07;3.17;;;;;;;28.60;42.71;101337.28;6114195;19;20024;-71
2023/07/11 08:30:04;;;;;;;4.60;2.42;;;;;;;29.24;41.25;101332.00;6113623;19;20019;-71
2023/07/11 08:32:10;;;;;;;5.55;2.60;;;;;;;29.80;40.10;101334.72;6109760;19;20027;-71
2023/07/11 08:34:15;;;;;;;4.97;2.30;;;;;;;29.71;39.94;101339.34;6111470;19;20502;-71
2023/07/11 08:36:20;;;;;;;6.10;2.40;;;;;;;29.20;40.51;101325.28;6114520;19;20022;-70
2023/07/11 08:38:28;;;;;;;5.72;2.40;;;;;;;29.61;39.80;101329.72;6112420;19;20011;-71
2023/07/11 08:40:40;;;;;;;5.20;2.42;;;;;;;29.51;39.53;101330.75;6113972;19;20006;-72
2023/07/11 08:42:52;;;;;;;4.05;2.10;;;;;;;29.34;39.88;101336.41;6113356;19;20058;-71
2023/07/11 08:45:04;;;;;;;4.18;2.40;;;;;;;29.12;40.28;101343.38;6112582;19;20356;-71
2023/07/11 08:47:15;;;;;;;6.13;2.45;;;;;;;29.00;39.88;101326.63;6112013;19;20030;-71
2023/07/11 08:49:28;;;;;;;5.22;2.00;;;;;;;29.10;40.88;101327.31;6113405;19;20002;-72
2023/07/11 08:51:37;;;;;;;4.88;2.17;;;;;;;29.20;40.56;101332.53;6109099;19;20353;-70
2023/07/11 08:53:49;;;;;;;7.30;2.40;;;;;;;29.11;41.29;101329.00;6112908;19;20042;-71
2023/07/11 08:55:56;;;;;;;;;;;;;;;29.21;40.56;101332.38;6114082;19;20025;-70
2023/07/11 08:58:09;;;;;;;5.28;2.60;;;;;;;29.23;40.19;101335.75;6112704;19;19914;-71
2023/07/11 09:00:19;;;;;;;7.57;2.60;;;;;;;29.37;39.76;101326.06;6109747;19;20482;-70
2023/07/11 09:02:36;;;;;;;5.47;2.00;;;;;;;29.24;41.26;101332.00;6111324;19;20010;-72
2023/07/11 09:04:53;;;;;;;3.95;2.08;;;;;;;29.36;39.87;101326.22;6112633;19;20002;-71
2023/07/11 09:07:07;;;;;;;3.90;1.98;;;;;;;29.69;39.76;101332.41;6114489;19;20022;-72
2023/07/11 09:09:16;;;;;;;3.70;2.05;;;;;;;28.64;40.58;101340.50;6113914;19;20029;-71
2023/07/11 09:11:28;;;;;;;4.47;2.33;;;;;;;28.46;41.85;101324.41;6111440;19;20512;-71
2023/07/11 09:13:49;;;;;;;3.05;2.13;;;;;;;28.33;41.75;101338.41;6112941;19;20011;-71
2023/07/11 09:16:07;;;;;;;4.78;2.03;;;;;;;28.22;42.33;101336.84;6112959;19;20007;-71
2023/07/11 09:18:29;;;;;;;4.55;2.55;;;;;;;28.93;41.97;101337.28;6110304;19;20011;-71
2023/07/11 09:20:47;;;;;;;4.80;2.28;;;;;;;29.18;40.40;101321.88;6109395;19;20011;-72
2023/07/11 09:23:01;;;;;;;5.38;2.03;;;;;;;29.21;42.18;101331.53;6112825;19;20103;-71
2023/07/11 09:25:14;;;;;;;3.70;2.20;;;;;;;29.26;43.43;101312.91;6111449;19;20015;-71
2023/07/11 09:27:25;;;;;;;4.90;2.53;;;;;;;29.81;41.09;101319.34;6112047;19;20015;-71
2023/07/11 09:29:33;;;;;;;5.22;2.40;;;;;;;29.83;41.50;101318.13;6113486;19;19999;-70
2023/07/11 09:31:42;;;;;;;6.07;2.60;;;;;;;29.70;40.93;101317.84;6112241;19;20078;-70
2023/07/11 09:33:54;;;;;;;5.78;2.40;;;;;;;29.17;41.43;101320.19;6111866;19;20014;-71
2023/07/11 09:36:01;;;;;;;4.78;2.30;;;;;;;29.36;41.79;101320.81;6113790;19;20011;-71
2023/07/11 09:38:13;;;;;;;6.20;2.67;;;;;;;29.37;41.97;101317.09;6113342;19;20082;-71
2023/07/11 09:40:31;;;;;;;5.38;2.30;;;;;;;29.34;42.17;101325.56;6104227;19;20527;-71
2023/07/11 09:42:45;;;;;;;5.95;2.45;;;;;;;29.12;42.92;101333.38;6112217;19;20023;-72
2023/07/11 09:45:04;;;;;;;8.00;2.50;;;;;;;28.61;42.72;101322.75;6110669;19;20010;-71
2023/07/11 09:47:19;;;;;;;7.38;2.53;;;;;;;28.11;44.72;101328.22;6111170;19;20023;-71
2023/07/11 09:49:30;;;;;;;3.13;2.10;;;;;;;28.83;42.73;101332.06;6112595;19;20007;-72
2023/07/11 09:51:39;;;;;;;6.53;2.92;;;;;;;28.69;42.42;101327.31;6112118;19;20019;-71